Time;durP1;ratioP1;P1;durP2;ratioP2;P2;SDS_P1;SDS_P2;PMS_P1;PMS_P2;Temp;Humidity;BMP_temperature;BMP_pressure;BME280_temperature;BME280_humidity;BME280_pressure;Samples;Min_cycle;Max_cycle;Signal;HPM_P1;HPM_P2
2021/10/23 00:01:04;;;;;;;20.95;18.80;;;;;;;18.92;53.86;101588.31;1718410;83;20995;-49
2021/10/23 00:03:32;;;;;;;22.90;20.43;;;;;;;18.91;53.74;101587.93;1718533;83;21058;-51
2021/10/23 00:06:00;;;;;;;20.23;18.12;;;;;;;18.88;53.64;101593.32;1718326;83;21554;-50
2021/10/23 00:08:26;;;;;;;21.87;19.55;;;;;;;18.86;53.50;101592.53;1718521;83;21097;-48
2021/10/23 00:10:53;;;;;;;23.22;19.62;;;;;;;18.85;53.30;101593.47;1717942;83;21058;-49
2021/10/23 00:13:20;;;;;;;21.42;19.12;;;;;;;18.84;53.25;101585.59;1718205;83;21105;-50
2021/10/23 00:15:47;;;;;;;23.00;19.05;;;;;;;18.83;53.06;101586.54;1712080;83;21542;-48
2021/10/23 00:18:15;;;;;;;23.95;19.77;;;;;;;18.81;52.86;101583.11;1715779;83;21032;-50
2021/10/23 00:20:43;;;;;;;22.05;19.67;;;;;;;18.78;52.71;101573.54;1717111;83;20998;-49
2021/10/23 00:23:10;;;;;;;22.37;19.87;;;;;;;18.76;52.74;101576.70;1718374;83;21074;-48
2021/10/23 00:25:36;;;;;;;24.67;20.23;;;;;;;18.74;52.74;101575.91;1718382;83;21503;-51
2021/10/23 00:28:04;;;;;;;20.88;18.67;;;;;;;18.73;52.84;101582.13;1718266;83;21026;-48
2021/10/23 00:30:31;;;;;;;23.38;21.07;;;;;;;18.70;52.86;101579.61;1718456;83;21007;-49
2021/10/23 00:33:01;;;;;;;21.73;19.52;;;;;;;18.68;52.90;101576.17;1718631;83;21479;-49
2021/10/23 00:35:27;;;;;;;23.00;19.35;;;;;;;18.67;52.81;101585.86;1714220;83;21054;-50
2021/10/23 00:37:55;;;;;;;23.32;20.05;;;;;;;18.65;52.80;101581.11;1718145;83;21049;-52
2021/10/23 00:40:23;;;;;;;21.17;18.80;;;;;;;18.65;52.86;101582.87;1729854;82;21522;-49
2021/10/23 00:42:51;;;;;;;21.70;19.40;;;;;;;18.63;52.92;101575.50;1740740;82;21026;-51
2021/10/23 00:45:18;;;;;;;21.37;19.10;;;;;;;18.62;52.81;101577.75;1734151;82;21568;-49
2021/10/23 00:47:44;;;;;;;23.55;20.00;;;;;;;18.59;52.90;101575.23;1740455;82;21002;-49
2021/10/23 00:50:10;;;;;;;23.70;19.35;;;;;;;18.57;53.07;101567.84;1725249;82;22423;-49
2021/10/23 00:52:37;;;;;;;25.30;21.17;;;;;;;18.55;53.16;101567.92;1736798;82;21025;-49
2021/10/23 00:55:06;;;;;;;22.82;20.40;;;;;;;18.53;53.21;101565.81;1736670;82;21035;-49
2021/10/23 00:57:33;;;;;;;23.38;20.50;;;;;;;18.53;53.21;101576.80;1737633;82;21062;-48
2021/10/23 01:00:00;;;;;;;25.92;21.30;;;;;;;18.51;53.29;101577.33;1733279;82;21050;-50
2021/10/23 01:02:27;;;;;;;22.40;20.10;;;;;;;18.49;53.18;101571.27;1740813;82;21023;-48
2021/10/23 01:04:53;;;;;;;23.35;20.62;;;;;;;18.48;53.30;101574.84;1736558;82;21046;-50
2021/10/23 01:07:20;;;;;;;23.55;20.92;;;;;;;18.47;53.39;101567.84;1735477;82;21070;-48
2021/10/23 01:09:48;;;;;;;26.33;21.37;;;;;;;18.47;53.47;101562.56;1726051;82;21038;-50
2021/10/23 01:12:15;;;;;;;22.55;20.32;;;;;;;18.47;53.45;101562.56;1737227;82;21010;-49
2021/10/23 01:14:45;;;;;;;24.30;20.10;;;;;;;18.47;53.35;101555.98;1739505;82;21030;-50
2021/10/23 01:17:12;;;;;;;24.82;20.95;;;;;;;18.49;53.32;101559.41;1733807;82;20999;-50
2021/10/23 01:19:40;;;;;;;23.25;20.20;;;;;;;18.48;53.38;101566.94;1735078;82;21082;-49
2021/10/23 01:22:06;;;;;;;22.87;20.20;;;;;;;18.48;53.27;101567.80;1732871;82;20975;-49
2021/10/23 01:24:33;;;;;;;23.52;20.72;;;;;;;18.48;53.18;101566.94;1737005;82;21543;-49
2021/10/23 01:26:59;;;;;;;22.75;20.45;;;;;;;18.48;53.15;101569.56;1736815;82;21058;-47
2021/10/23 01:29:26;;;;;;;24.37;21.35;;;;;;;18.49;53.14;101571.27;1737729;82;21003;-49
2021/10/23 01:31:53;;;;;;;24.10;21.42;;;;;;;18.47;53.11;101569.16;1738683;82;21003;-49
2021/10/23 01:34:25;;;;;;;25.52;21.70;;;;;;;18.47;53.04;101583.65;1738715;82;22391;-49
2021/10/23 01:36:53;;;;;;;;;;;;;;;18.46;53.08;101579.31;1728276;82;20991;-50
2021/10/23 01:39:21;;;;;;;25.37;21.40;;;;;;;18.48;53.03;101581.42;1732443;82;20105;-47
2021/10/23 01:41:49;;;;;;;25.25;21.48;;;;;;;18.46;53.17;101578.86;1724856;82;21042;-49
2021/10/23 01:44:16;;;;;;;26.82;22.45;;;;;;;18.46;53.10;101576.23;1727292;82;21078;-47
2021/10/23 01:46:43;;;;;;;23.50;21.10;;;;;;;18.47;53.00;101586.28;1721126;82;21027;-48
2021/10/23 01:49:10;;;;;;;26.70;21.55;;;;;;;18.45;53.00;101581.53;1730564;82;20999;-50
2021/10/23 01:51:37;;;;;;;27.87;22.58;;;;;;;18.45;52.91;101584.17;1730210;82;21015;-47
2021/10/23 01:54:06;;;;;;;24.35;21.75;;;;;;;18.45;52.85;101587.67;1727701;82;21052;-47
2021/10/23 01:56:35;;;;;;;26.50;22.25;;;;;;;18.45;52.84;101588.12;1727135;82;20988;-49
2021/10/23 01:59:02;;;;;;;25.12;22.17;;;;;;;18.44;52.93;101593.02;1727389;82;20995;-49
2021/10/23 02:01:29;;;;;;;24.43;21.90;;;;;;;18.42;52.90;101594.83;1727780;82;20999;-49
2021/10/23 02:03:56;;;;;;;25.45;22.22;;;;;;;18.42;52.88;101596.14;1727379;82;21035;-49
2021/10/23 02:06:23;;;;;;;25.23;22.52;;;;;;;18.40;53.03;101588.76;1729704;82;21110;-49
2021/10/23 02:08:49;;;;;;;27.85;22.48;;;;;;;18.40;53.08;101585.64;1730458;82;21046;-49
2021/10/23 02:11:17;;;;;;;26.65;22.52;;;;;;;18.38;53.13;101581.38;1729637;82;20996;-47
2021/10/23 02:13:44;;;;;;;24.65;21.80;;;;;;;18.38;53.23;101589.28;1728061;82;21539;-49
2021/10/23 02:16:12;;;;;;;28.02;23.35;;;;;;;18.37;53.31;101592.82;1729617;82;21082;-50
2021/10/23 02:18:39;;;;;;;25.82;23.10;;;;;;;18.36;53.36;101601.66;1730419;82;21062;-49
2021/10/23 02:21:07;;;;;;;25.75;22.75;;;;;;;18.34;53.42;101602.19;1730505;82;21003;-47
2021/10/23 02:23:35;;;;;;;25.97;23.22;;;;;;;18.34;53.45;101602.19;1717376;82;21042;-52
2021/10/23 02:26:03;;;;;;;28.25;23.30;;;;;;;18.34;53.43;101601.70;1727871;82;21019;-49
2021/10/23 02:28:30;;;;;;;29.12;24.25;;;;;;;18.34;53.48;101595.59;1729329;82;21050;-51
2021/10/23 02:30:56;;;;;;;27.15;24.25;;;;;;;18.34;53.54;101591.64;1729701;82;21026;-49
2021/10/23 02:33:24;;;;;;;28.75;22.85;;;;;;;18.33;53.53;101597.82;1730586;82;21058;-49
2021/10/23 02:35:51;;;;;;;25.43;22.73;;;;;;;18.32;53.50;101601.39;1730459;82;21518;-49
2021/10/23 02:38:17;;;;;;;25.23;22.70;;;;;;;18.32;53.47;101604.02;1727789;82;21506;-49
2021/10/23 02:40:44;;;;;;;28.45;23.90;;;;;;;18.30;53.57;101605.86;1732835;82;21062;-49
2021/10/23 02:43:11;;;;;;;27.60;23.90;;;;;;;18.30;53.62;101611.12;1735566;82;21043;-47
2021/10/23 02:45:38;;;;;;;26.00;23.05;;;;;;;18.29;53.70;101618.62;1729832;82;21073;-50
2021/10/23 02:48:05;;;;;;;25.50;22.75;;;;;;;18.27;53.73;101617.83;1737613;82;21002;-47
2021/10/23 02:50:32;;;;;;;27.67;24.60;;;;;;;18.25;53.76;101620.53;1730436;82;21011;-50
2021/10/23 02:52:59;;;;;;;27.50;23.42;;;;;;;18.25;53.74;101617.03;1735066;82;21037;-49
2021/10/23 02:55:27;;;;;;;30.82;23.05;;;;;;;18.25;53.81;101619.66;1735967;82;21069;-52
2021/10/23 02:57:53;;;;;;;25.65;22.87;;;;;;;18.22;53.76;101617.13;1732030;82;21510;-49
2021/10/23 03:00:21;;;;;;;30.20;23.62;;;;;;;18.21;53.71;101612.80;1738339;82;21033;-49
2021/10/23 03:02:50;;;;;;;28.80;24.55;;;;;;;18.20;53.77;101612.39;1737473;82;21014;-49
2021/10/23 03:05:17;;;;;;;26.05;23.35;;;;;;;18.19;53.77;101618.59;1735969;82;21062;-49
2021/10/23 03:07:44;;;;;;;26.70;23.95;;;;;;;18.19;53.86;101610.69;1737421;82;20970;-47
2021/10/23 03:10:13;;;;;;;28.70;23.77;;;;;;;18.19;53.89;101609.37;1738439;82;21027;-49
2021/10/23 03:12:40;;;;;;;27.10;23.52;;;;;;;18.16;53.92;101609.48;1738411;82;21086;-51
2021/10/23 03:15:09;;;;;;;30.15;24.75;;;;;;;18.20;53.87;101605.80;1737686;82;21019;-49
2021/10/23 03:17:37;;;;;;;26.23;21.57;;;;;;;18.18;53.66;101597.10;1735573;82;21027;-48
2021/10/23 03:20:05;;;;;;;27.13;22.90;;;;;;;18.12;53.67;101593.39;1735530;81;21486;-48
2021/10/23 03:22:33;;;;;;;27.95;24.00;;;;;;;18.03;53.78;101597.28;1735037;82;21530;-49
2021/10/23 03:25:00;;;;;;;26.23;23.38;;;;;;;17.94;54.07;101604.66;1735760;82;21038;-52
2021/10/23 03:27:26;;;;;;;26.27;23.40;;;;;;;17.87;54.18;101611.47;1735408;82;21490;-49
2021/10/23 03:29:53;;;;;;;27.17;23.47;;;;;;;17.81;54.30;101611.71;1738071;82;21145;-50
2021/10/23 03:32:20;;;;;;;26.45;23.73;;;;;;;17.82;54.33;101609.49;1742070;82;20991;-48
2021/10/23 03:34:47;;;;;;;25.65;22.80;;;;;;;17.85;54.24;101603.23;1735938;82;21070;-50
2021/10/23 03:37:14;;;;;;;24.87;21.70;;;;;;;17.84;54.19;101601.08;1734886;82;21062;-49
2021/10/23 03:39:41;;;;;;;25.92;23.22;;;;;;;17.78;54.27;101596.02;1736820;82;21034;-48
2021/10/23 03:42:07;;;;;;;24.27;21.73;;;;;;;17.74;54.48;101603.63;1734508;82;20970;-50
2021/10/23 03:44:34;;;;;;;25.48;22.80;;;;;;;17.69;54.85;101608.23;1738518;82;21074;-49
2021/10/23 03:47:01;;;;;;;26.62;23.73;;;;;;;17.63;55.29;101596.62;1730919;82;21046;-49
2021/10/23 03:49:28;;;;;;;24.65;21.95;;;;;;;17.61;55.51;101591.87;1735585;82;21030;-50
2021/10/23 03:51:55;;;;;;;24.82;20.27;;;;;;;17.59;55.61;101583.17;1735506;82;20999;-50
2021/10/23 03:54:22;;;;;;;24.23;21.48;;;;;;;17.58;55.62;101594.59;1737819;82;21066;-49
2021/10/23 03:56:50;;;;;;;24.30;21.33;;;;;;;17.56;55.57;101597.75;1738456;82;21071;-50
2021/10/23 03:59:16;;;;;;;24.75;22.05;;;;;;;17.51;55.83;101602.34;1737905;82;21094;-48
2021/10/23 04:01:43;;;;;;;25.92;23.15;;;;;;;17.51;56.04;101606.73;1735690;82;21479;-49
2021/10/23 04:04:10;;;;;;;25.75;21.40;;;;;;;17.48;55.96;101604.17;1734467;82;21026;-51
2021/10/23 04:06:37;;;;;;;23.77;21.27;;;;;;;17.47;55.83;101598.08;1739335;82;21034;-50
2021/10/23 04:09:04;;;;;;;23.65;21.15;;;;;;;17.45;55.82;101598.59;1738522;82;21478;-51
2021/10/23 04:11:31;;;;;;;22.93;20.62;;;;;;;17.41;55.86;101610.59;1727856;82;21510;-48
2021/10/23 04:13:57;;;;;;;24.23;21.62;;;;;;;17.38;55.90;101616.81;1735735;82;21066;-51
2021/10/23 04:16:26;;;;;;;23.62;20.80;;;;;;;17.37;55.96;101620.34;1737332;82;21086;-48
2021/10/23 04:18:54;;;;;;;22.52;20.20;;;;;;;17.38;56.02;101623.39;1738333;82;21102;-50
2021/10/23 04:21:21;;;;;;;44.55;24.23;;;;;;;17.38;56.11;101624.70;1734263;82;21526;-53
2021/10/23 04:23:48;;;;;;;22.48;19.73;;;;;;;17.39;56.09;101622.94;1738302;82;21039;-50
2021/10/23 04:26:14;;;;;;;20.30;17.42;;;;;;;17.41;55.96;101626.37;1738207;82;21058;-50
2021/10/23 04:28:41;;;;;;;23.35;19.20;;;;;;;17.43;55.73;101628.05;1734998;82;20971;-50
2021/10/23 04:31:07;;;;;;;22.50;20.20;;;;;;;17.48;55.46;101633.98;1735556;82;21018;-50
2021/10/23 04:33:35;;;;;;;24.85;21.85;;;;;;;17.55;55.31;101632.89;1735648;82;21066;-49
2021/10/23 04:36:04;;;;;;;23.57;21.10;;;;;;;17.62;55.20;101630.41;1735248;82;21081;-50
2021/10/23 04:38:30;;;;;;;23.83;20.90;;;;;;;17.69;55.15;101631.92;1735847;82;21003;-49
2021/10/23 04:40:57;;;;;;;22.30;19.95;;;;;;;17.74;55.18;101624.69;1731874;82;21022;-49
2021/10/23 04:43:24;;;;;;;20.72;18.52;;;;;;;17.79;55.29;101622.76;1738351;82;21035;-50
2021/10/23 04:45:52;;;;;;;20.45;17.73;;;;;;;17.83;55.31;101617.77;1736581;82;21574;-49
2021/10/23 04:48:20;;;;;;;19.40;17.40;;;;;;;17.88;55.38;101630.77;1736204;82;21010;-50
2021/10/23 04:50:46;;;;;;;18.90;16.90;;;;;;;17.92;55.30;101626.23;1737369;82;21046;-51
2021/10/23 04:53:13;;;;;;;19.60;17.45;;;;;;;17.96;55.29;101618.17;1738735;82;21570;-49
2021/10/23 04:55:40;;;;;;;18.75;16.85;;;;;;;18.02;55.27;101627.59;1738229;82;21039;-50
2021/10/23 04:58:07;;;;;;;20.57;17.10;;;;;;;18.06;55.28;101634.01;1736283;82;21494;-48
2021/10/23 05:00:33;;;;;;;21.17;16.67;;;;;;;18.09;55.37;101643.13;1735235;82;21050;-49
2021/10/23 05:03:00;;;;;;;17.85;15.95;;;;;;;18.11;55.48;101645.69;1735888;82;21014;-48
2021/10/23 05:05:26;;;;;;;19.55;16.55;;;;;;;18.13;55.61;101646.49;1734816;82;21045;-52
2021/10/23 05:07:53;;;;;;;19.05;16.55;;;;;;;18.15;55.71;101645.97;1731355;82;21118;-50
2021/10/23 05:10:22;;;;;;;23.47;18.05;;;;;;;18.18;55.79;101648.02;1738376;82;21023;-51
2021/10/23 05:12:48;;;;;;;18.10;16.20;;;;;;;18.22;55.87;101640.84;1735989;82;20979;-51
2021/10/23 05:15:16;;;;;;;18.48;16.48;;;;;;;18.23;56.00;101638.17;1734849;82;21632;-49
2021/10/23 05:17:44;;;;;;;18.02;16.05;;;;;;;18.26;56.06;101646.42;1735786;82;21022;-51
2021/10/23 05:20:13;;;;;;;21.17;16.67;;;;;;;18.29;56.07;101659.46;1734965;82;21570;-51
2021/10/23 05:22:41;;;;;;;19.02;16.90;;;;;;;18.29;56.10;101655.51;1735767;82;21023;-51
2021/10/23 05:25:08;;;;;;;17.27;15.18;;;;;;;18.31;56.16;101673.43;1737545;82;21042;-50
2021/10/23 05:27:35;;;;;;;17.95;14.45;;;;;;;18.31;56.21;101669.48;1738467;82;21038;-51
2021/10/23 05:30:03;;;;;;;17.60;14.15;;;;;;;18.32;56.22;101673.84;1737845;82;21114;-49
2021/10/23 05:32:31;;;;;;;14.83;12.47;;;;;;;18.34;56.14;101682.55;1735683;82;21034;-50
2021/10/23 05:34:58;;;;;;;13.03;11.68;;;;;;;18.34;55.99;101676.80;1736884;82;20990;-51
2021/10/23 05:37:26;;;;;;;12.70;11.40;;;;;;;18.36;55.85;101683.34;1733967;82;21636;-49
2021/10/23 05:39:53;;;;;;;12.78;11.48;;;;;;;18.36;55.62;101694.72;1738950;82;20983;-49
2021/10/23 05:42:20;;;;;;;14.07;10.90;;;;;;;18.35;55.61;101698.73;1729835;82;21039;-50
2021/10/23 05:44:47;;;;;;;16.48;12.23;;;;;;;18.34;55.73;101702.31;1727509;82;21085;-48
2021/10/23 05:47:13;;;;;;;15.85;11.80;;;;;;;18.34;55.93;101708.90;1715819;82;21535;-48
2021/10/23 05:49:40;;;;;;;14.83;11.48;;;;;;;18.32;56.16;101706.78;1725096;82;21078;-51
2021/10/23 05:52:07;;;;;;;14.43;10.95;;;;;;;18.33;56.39;101717.70;1732748;82;20991;-51
2021/10/23 05:54:37;;;;;;;11.20;10.10;;;;;;;18.35;56.40;101718.50;1728745;82;21498;-50
2021/10/23 05:57:10;;;;;;;10.50;9.20;;;;;;;18.35;56.29;101717.19;1724832;82;21027;-50
2021/10/23 05:59:40;;;;;;;12.58;10.60;;;;;;;18.35;56.29;101726.41;1715570;82;21066;-51
2021/10/23 06:04:34;;;;;;;12.20;10.05;;;;;;;18.34;56.53;101735.25;1675488;85;21093;-51
2021/10/23 06:07:00;;;;;;;13.35;10.45;;;;;;;18.34;56.70;101735.25;1659696;85;21546;-48
2021/10/23 06:09:29;;;;;;;10.53;9.43;;;;;;;18.33;56.75;101730.88;1671208;85;21078;-49
2021/10/23 06:11:59;;;;;;;10.00;8.68;;;;;;;18.31;56.64;101738.85;1638809;85;21074;-51
2021/10/23 06:14:26;;;;;;;9.55;8.38;;;;;;;18.30;56.57;101740.23;1669988;85;21058;-51
2021/10/23 06:16:52;;;;;;;12.18;8.40;;;;;;;18.31;56.51;101739.30;1679461;85;21146;-54
2021/10/23 06:19:20;;;;;;;10.18;8.50;;;;;;;18.33;56.37;101736.15;1634257;86;20995;-52
2021/10/23 06:21:49;;;;;;;9.23;8.30;;;;;;;18.35;56.41;101735.63;1671268;85;21173;-49
2021/10/23 06:24:15;;;;;;;12.98;8.78;;;;;;;18.36;56.37;101737.36;1681927;85;21550;-51
2021/10/23 06:26:42;;;;;;;10.53;8.35;;;;;;;18.37;56.42;101729.39;1671775;85;21051;-51
2021/10/23 06:29:09;;;;;;;9.10;8.20;;;;;;;18.38;56.38;101728.94;1673560;84;21126;-50
2021/10/23 06:31:37;;;;;;;8.73;6.87;;;;;;;18.38;56.44;101730.26;1668113;85;21066;-53
2021/10/23 06:34:04;;;;;;;10.58;7.75;;;;;;;18.39;56.50;101730.64;1672154;85;21547;-52
2021/10/23 06:36:30;;;;;;;7.92;7.12;;;;;;;18.39;56.50;101740.73;1668839;85;21091;-52
2021/10/23 06:38:59;;;;;;;11.63;7.10;;;;;;;18.40;56.39;101741.59;1658892;85;21090;-50
2021/10/23 06:41:25;;;;;;;8.53;6.65;;;;;;;18.39;56.36;101749.09;1637168;85;21031;-50
2021/10/23 06:43:52;;;;;;;9.93;7.08;;;;;;;18.39;56.40;101756.99;1727979;82;21494;-51
2021/10/23 06:46:20;;;;;;;8.48;6.33;;;;;;;18.40;56.03;101764.83;1725327;82;21082;-51
2021/10/23 06:48:47;;;;;;;8.30;6.50;;;;;;;18.39;55.53;101764.90;1723443;82;21042;-50
2021/10/23 06:51:13;;;;;;;7.72;6.30;;;;;;;18.39;55.33;101770.17;1718594;82;21538;-51
2021/10/23 06:53:41;;;;;;;11.57;7.03;;;;;;;18.38;55.44;101773.73;1731073;82;21011;-53
2021/10/23 06:56:10;;;;;;;8.13;6.67;;;;;;;18.38;55.34;101772.42;1728489;82;21483;-50
2021/10/23 06:58:36;;;;;;;8.90;6.70;;;;;;;18.36;55.44;101757.12;1730619;82;20996;-51
2021/10/23 07:01:06;;;;;;;11.90;7.50;;;;;;;18.37;55.33;101762.33;1728086;82;21527;-52
2021/10/23 07:03:33;;;;;;;10.08;7.78;;;;;;;18.37;55.22;101770.69;1727301;82;20971;-52
2021/10/23 07:05:59;;;;;;;10.72;8.15;;;;;;;18.37;55.06;101774.64;1722504;82;20982;-52
2021/10/23 07:08:28;;;;;;;9.60;8.25;;;;;;;18.37;55.02;101782.55;1726496;82;21026;-53
2021/10/23 07:10:55;;;;;;;10.50;8.63;;;;;;;18.36;54.91;101786.11;1724565;82;21062;-50
2021/10/23 07:13:22;;;;;;;13.43;9.10;;;;;;;18.34;54.92;101785.31;1686483;83;21103;-51
2021/10/23 07:15:49;;;;;;;12.05;9.00;;;;;;;18.32;55.02;101786.66;1706205;83;21510;-52
2021/10/23 07:18:16;;;;;;;10.50;8.58;;;;;;;18.32;55.07;101787.14;1665495;85;21051;-54
2021/10/23 07:20:43;;;;;;;12.28;9.18;;;;;;;18.29;54.94;101788.11;1729803;82;21020;-51
2021/10/23 07:23:10;;;;;;;11.78;9.50;;;;;;;18.31;54.98;101782.78;1733539;82;21019;-51
2021/10/23 07:25:37;;;;;;;11.73;8.03;;;;;;;18.30;54.86;101788.98;1729928;82;21058;-53
2021/10/23 07:28:06;;;;;;;11.48;8.85;;;;;;;18.30;54.77;101791.61;1732923;82;21594;-52
2021/10/23 07:30:32;;;;;;;10.70;8.78;;;;;;;18.28;54.52;101798.72;1738675;82;21062;-52
2021/10/23 07:32:59;;;;;;;12.23;8.68;;;;;;;18.25;54.49;101806.27;1741570;82;21488;-50
2021/10/23 07:35:27;;;;;;;10.82;9.10;;;;;;;18.23;54.82;101803.28;1720081;82;21027;-53
2021/10/23 07:37:55;;;;;;;10.35;8.73;;;;;;;18.21;54.74;101816.97;1711729;83;21437;-52
2021/10/23 07:40:21;;;;;;;9.78;7.70;;;;;;;18.18;54.57;101817.06;1701132;83;21515;-50
2021/10/23 07:42:50;;;;;;;11.50;7.33;;;;;;;18.15;54.23;101823.78;1695438;83;21066;-53
2021/10/23 07:45:17;;;;;;;11.15;7.85;;;;;;;18.11;54.13;101828.75;1707198;83;21015;-53
2021/10/23 07:47:45;;;;;;;11.22;8.00;;;;;;;18.08;53.96;101830.16;1701832;84;21539;-55
2021/10/23 07:50:12;;;;;;;11.90;7.05;;;;;;;18.04;53.87;101833.83;1736423;82;21097;-52
2021/10/23 07:52:39;;;;;;;9.78;6.90;;;;;;;18.03;53.75;101836.07;1736870;82;21011;-50
2021/10/23 07:55:08;;;;;;;10.20;7.17;;;;;;;18.02;53.42;101846.19;1734184;82;21022;-54
2021/10/23 07:57:37;;;;;;;8.90;6.70;;;;;;;17.99;53.20;101847.14;1734769;82;21581;-50
2021/10/23 08:00:07;;;;;;;11.22;6.90;;;;;;;17.99;52.85;101847.63;1731595;82;21554;-55
2021/10/23 08:02:36;;;;;;;9.25;6.53;;;;;;;17.99;52.43;101856.37;1731241;82;21003;-52
2021/10/23 08:05:04;;;;;;;10.65;6.95;;;;;;;17.96;52.59;101857.80;1732315;81;21022;-51
2021/10/23 08:07:33;;;;;;;11.93;7.75;;;;;;;17.97;52.98;101857.36;1735284;82;21003;-53
2021/10/23 08:09:59;;;;;;;11.63;7.53;;;;;;;17.98;53.52;101859.06;1737825;82;21022;-53
2021/10/23 08:12:26;;;;;;;9.58;6.95;;;;;;;17.98;54.02;101859.06;1738263;82;20947;-51
2021/10/23 08:14:53;;;;;;;12.98;7.45;;;;;;;17.98;54.30;101862.56;1734200;82;21368;-51
2021/10/23 08:17:19;;;;;;;10.53;7.62;;;;;;;17.95;54.58;101862.66;1729606;82;21045;-52
2021/10/23 08:19:46;;;;;;;10.30;7.70;;;;;;;17.92;54.86;101861.91;1740270;82;21019;-50
2021/10/23 08:22:13;;;;;;;11.68;7.55;;;;;;;17.85;55.14;101868.70;1731004;82;21014;-53
2021/10/23 08:24:42;;;;;;;10.60;7.78;;;;;;;17.80;55.47;101861.41;1732963;82;21117;-52
2021/10/23 08:27:10;;;;;;;9.43;7.17;;;;;;;17.77;55.74;101873.38;1734333;82;21022;-53
2021/10/23 08:29:37;;;;;;;10.65;6.78;;;;;;;17.74;55.29;101875.26;1731564;82;21578;-52
2021/10/23 08:32:04;;;;;;;9.43;6.90;;;;;;;17.71;54.93;101876.21;1726103;82;21015;-51
2021/10/23 08:34:31;;;;;;;9.95;7.22;;;;;;;17.69;55.00;101885.94;1736005;82;21015;-50
2021/10/23 08:36:58;;;;;;;8.95;6.53;;;;;;;17.69;55.36;101891.20;1740189;82;21031;-51
2021/10/23 08:39:24;;;;;;;10.28;7.20;;;;;;;17.73;55.56;101898.08;1738468;82;21023;-51
2021/10/23 08:41:53;;;;;;;11.03;7.22;;;;;;;17.73;55.50;101894.13;1730240;82;21622;-51
2021/10/23 08:44:19;;;;;;;10.15;7.42;;;;;;;17.76;55.45;101900.59;1727092;82;21024;-51
2021/10/23 08:46:46;;;;;;;12.60;8.45;;;;;;;17.76;55.57;101895.33;1733511;82;21050;-50
2021/10/23 08:49:13;;;;;;;10.75;6.72;;;;;;;17.77;55.63;101899.70;1733286;82;21046;-52
2021/10/23 08:51:43;;;;;;;13.22;7.72;;;;;;;17.79;55.74;101898.32;1740807;81;21054;-51
2021/10/23 08:54:14;;;;;;;8.25;6.90;;;;;;;17.79;55.85;101895.24;1742998;82;20999;-53
2021/10/23 08:56:42;;;;;;;9.35;7.28;;;;;;;17.81;55.93;101896.50;1689912;84;21066;-55
2021/10/23 08:59:09;;;;;;;9.13;7.42;;;;;;;17.85;56.11;101896.35;1691098;85;20963;-50
2021/10/23 09:01:37;;;;;;;18.45;11.48;;;;;;;17.91;56.06;101894.44;1688013;85;21071;-51
2021/10/23 09:04:04;;;;;;;14.80;9.13;;;;;;;17.96;56.11;101903.89;1689993;85;21070;-52
2021/10/23 09:06:39;;;;;;;12.78;7.50;;;;;;;17.96;55.96;101902.58;1689923;85;21074;-51
2021/10/23 09:09:09;;;;;;;11.53;7.17;;;;;;;17.95;56.44;101896.05;1689091;85;21022;-51
2021/10/23 09:11:46;;;;;;;12.43;7.37;;;;;;;17.98;56.24;101894.61;1690192;84;21092;-52
2021/10/23 09:14:35;;;;;;;16.77;12.90;;;;;;;18.00;56.16;101889.70;1691123;83;21034;-52
2021/10/23 09:17:09;;;;;;;16.15;11.68;;;;;;;18.01;56.53;101890.09;1689904;85;21078;-53
2021/10/23 09:19:43;;;;;;;10.45;7.30;;;;;;;18.02;56.88;101898.86;1690195;84;20979;-51
2021/10/23 09:22:30;;;;;;;11.12;6.65;;;;;;;18.00;56.80;101890.16;1654009;85;21118;-50
2021/10/23 09:25:14;;;;;;;10.28;6.65;;;;;;;17.99;56.83;101891.08;1656977;85;21051;-52
2021/10/23 09:28:05;;;;;;;10.28;8.10;;;;;;;18.00;57.21;101888.84;1639768;87;21592;-52
2021/10/23 09:30:35;;;;;;;13.50;11.25;;;;;;;18.03;57.37;101886.11;1658114;85;21032;-50
2021/10/23 09:33:08;;;;;;;11.90;10.50;;;;;;;18.06;57.61;101889.94;1664267;85;21637;-53
2021/10/23 09:35:37;;;;;;;9.20;8.10;;;;;;;18.11;57.95;101890.66;1643793;85;21074;-51
2021/10/23 09:38:04;;;;;;;9.85;7.40;;;;;;;18.13;57.53;101879.16;1654526;85;21035;-53
2021/10/23 09:40:31;;;;;;;8.48;6.35;;;;;;;18.15;57.46;101873.83;1669336;85;21043;-50
2021/10/23 09:43:21;;;;;;;9.20;7.20;;;;;;;18.17;57.78;101866.73;1653320;85;21038;-52
2021/10/23 09:46:02;;;;;;;8.33;5.40;;;;;;;18.21;57.90;101858.67;1618766;87;22022;-53
2021/10/23 09:48:50;;;;;;;6.22;4.70;;;;;;;18.25;57.89;101845.79;1633841;87;21071;-52
2021/10/23 09:51:29;;;;;;;6.12;5.50;;;;;;;18.29;58.19;101843.89;1634637;87;21099;-51
2021/10/23 09:54:00;;;;;;;9.90;5.80;;;;;;;18.32;58.26;101845.11;1563167;91;21621;-53
2021/10/23 09:56:36;;;;;;;4.67;3.87;;;;;;;18.35;58.50;101846.30;1462271;97;21066;-54
2021/10/23 09:59:09;;;;;;;8.53;4.45;;;;;;;18.38;58.57;101844.89;1456759;97;21756;-52
2021/10/23 10:01:41;;;;;;;;;;;;;;;18.42;58.74;101843.86;1407061;101;21624;-51
2021/10/23 10:04:10;;;;;;;9.05;4.70;;;;;;;18.47;58.68;101837.98;1444159;99;20126;-53
2021/10/23 10:06:40;;;;;;;8.63;4.42;;;;;;;18.50;58.73;101829.52;1409019;101;21095;-50
2021/10/23 10:09:10;;;;;;;13.48;5.55;;;;;;;18.52;59.00;101822.86;1407749;101;21117;-53
2021/10/23 10:11:38;;;;;;;7.42;3.77;;;;;;;18.54;59.13;101819.26;1421672;100;21152;-53
2021/10/23 10:14:08;;;;;;;14.13;4.67;;;;;;;18.57;59.01;101819.58;1448300;98;22096;-54
2021/10/23 10:16:35;;;;;;;6.35;3.65;;;;;;;18.61;59.07;101815.91;1441505;98;21162;-51
2021/10/23 10:19:04;;;;;;;9.90;3.72;;;;;;;18.66;59.16;101821.88;1407012;101;21127;-53
2021/10/23 10:21:34;;;;;;;7.65;3.20;;;;;;;18.70;58.98;101823.48;1428942;99;21163;-53
2021/10/23 10:24:23;;;;;;;25.82;21.30;;;;;;;18.75;58.25;101816.71;1438406;98;21131;-52
2021/10/23 10:27:04;;;;;;;8.38;7.50;;;;;;;18.80;58.35;101819.56;1496184;95;21097;-50
2021/10/23 10:32:25;;;;;;;6.67;4.20;;;;;;;18.92;57.85;101821.72;1491363;94;21079;-52
2021/10/23 10:35:13;;;;;;;6.62;3.98;;;;;;;18.99;57.52;101833.76;1482244;95;21243;-53
2021/10/23 10:43:04;;;;;;;9.38;6.20;;;;;;;19.09;57.37;101824.55;1483603;96;21158;-50
2021/10/23 10:45:48;;;;;;;8.43;6.23;;;;;;;19.11;57.56;101820.08;1483216;96;21615;-54
2021/10/23 10:48:34;;;;;;;10.28;7.58;;;;;;;19.13;57.49;101826.16;1481083;96;21337;-52
2021/10/23 10:51:15;;;;;;;15.18;9.30;;;;;;;19.17;57.28;101828.20;1497012;94;21580;-53
2021/10/23 10:53:55;;;;;;;15.10;9.03;;;;;;;19.18;56.92;101829.48;1507714;94;21063;-53
2021/10/23 10:56:23;;;;;;;12.00;9.08;;;;;;;19.16;56.57;101833.95;1523908;93;21088;-52
2021/10/23 10:58:55;;;;;;;13.40;9.85;;;;;;;19.14;56.19;101843.72;1534723;91;21144;-52
2021/10/23 11:01:30;;;;;;;11.40;8.80;;;;;;;19.12;56.14;101845.55;1577836;90;21070;-52
2021/10/23 11:04:10;;;;;;;13.60;8.80;;;;;;;19.12;55.66;101841.59;1583691;90;21629;-51
2021/10/23 11:06:49;;;;;;;11.38;7.62;;;;;;;19.14;55.30;101845.03;1611559;86;21034;-50
2021/10/23 11:09:25;;;;;;;6.78;5.33;;;;;;;19.17;54.71;101846.21;1582016;89;21640;-52
2021/10/23 11:12:00;;;;;;;6.08;5.10;;;;;;;19.21;54.10;101849.12;1641904;86;21601;-51
2021/10/23 11:14:35;;;;;;;6.87;5.05;;;;;;;19.25;53.77;101846.77;1643374;86;21458;-51
2021/10/23 11:17:14;;;;;;;11.20;8.00;;;;;;;19.27;53.38;101842.28;1639319;86;21553;-53
2021/10/23 11:19:54;;;;;;;11.57;8.58;;;;;;;19.28;53.26;101844.47;1637789;86;21025;-54
2021/10/23 11:22:30;;;;;;;10.30;8.38;;;;;;;19.25;53.25;101849.40;1643289;86;21033;-50
2021/10/23 11:25:11;;;;;;;13.18;9.38;;;;;;;19.23;53.42;101848.60;1636521;86;21045;-52
2021/10/23 11:27:50;;;;;;;11.25;9.53;;;;;;;19.22;53.99;101852.18;1637863;86;21006;-52
2021/10/23 11:30:33;;;;;;;13.30;9.80;;;;;;;19.22;54.48;101852.18;1689844;82;21502;-51
2021/10/23 11:33:04;;;;;;;11.85;9.38;;;;;;;19.21;54.86;101844.30;1732541;82;21571;-52